sensor_id;sensor_type;location;lat;lon;timestamp;pressure;altitude;pressure_sealevel;temperature;humidity
33496;BME280;19836;55.812;37.560;2023-08-06T00:00:22;99859.91;;;24.25;62.13
33496;BME280;19836;55.812;37.560;2023-08-06T00:02:49;99857.91;;;24.27;61.87
33496;BME280;19836;55.812;37.560;2023-08-06T00:05:15;99861.25;;;24.31;61.86
33496;BME280;19836;55.812;37.560;2023-08-06T00:07:44;99857.38;;;24.33;62.15
33496;BME280;19836;55.812;37.560;2023-08-06T00:10:11;99855.41;;;24.35;61.87
33496;BME280;19836;55.812;37.560;2023-08-06T00:12:36;99856.25;;;24.36;61.68
33496;BME280;19836;55.812;37.560;2023-08-06T00:15:02;99862.63;;;24.36;61.36
33496;BME280;19836;55.812;37.560;2023-08-06T00:17:30;99850.91;;;24.34;61.27
33496;BME280;19836;55.812;37.560;2023-08-06T00:19:56;99855.66;;;24.32;61.53
33496;BME280;19836;55.812;37.560;2023-08-06T00:22:22;99859.41;;;24.31;61.54
33496;BME280;19836;55.812;37.560;2023-08-06T00:24:48;99854.75;;;24.32;61.39
33496;BME280;19836;55.812;37.560;2023-08-06T00:27:14;99865.00;;;24.30;61.59
33496;BME280;19836;55.812;37.560;2023-08-06T00:29:40;99863.38;;;24.27;61.56
33496;BME280;19836;55.812;37.560;2023-08-06T00:32:06;99863.03;;;24.21;61.89
33496;BME280;19836;55.812;37.560;2023-08-06T00:34:32;99861.69;;;24.15;62.03
33496;BME280;19836;55.812;37.560;2023-08-06T00:36:58;99862.94;;;24.11;62.37
33496;BME280;19836;55.812;37.560;2023-08-06T00:39:24;99863.28;;;24.07;62.70
33496;BME280;19836;55.812;37.560;2023-08-06T00:41:49;99867.16;;;24.04;62.82
33496;BME280;19836;55.812;37.560;2023-08-06T00:44:15;99867.44;;;24.01;62.78
33496;BME280;19836;55.812;37.560;2023-08-06T00:46:41;99860.47;;;23.97;63.02
33496;BME280;19836;55.812;37.560;2023-08-06T00:49:07;99866.19;;;23.94;63.13
33496;BME280;19836;55.812;37.560;2023-08-06T00:51:34;99857.25;;;23.92;63.12
33496;BME280;19836;55.812;37.560;2023-08-06T00:54:02;99865.81;;;23.88;63.32
33496;BME280;19836;55.812;37.560;2023-08-06T00:56:28;99866.94;;;23.85;63.28
33496;BME280;19836;55.812;37.560;2023-08-06T00:58:55;99861.69;;;23.82;63.54
33496;BME280;19836;55.812;37.560;2023-08-06T01:01:21;99874.66;;;23.80;63.52
33496;BME280;19836;55.812;37.560;2023-08-06T01:03:47;99873.03;;;23.78;63.69
33496;BME280;19836;55.812;37.560;2023-08-06T01:06:14;99871.41;;;23.75;63.83
33496;BME280;19836;55.812;37.560;2023-08-06T01:13:33;99872.53;;;23.73;63.95
33496;BME280;19836;55.812;37.560;2023-08-06T01:17:43;99869.94;;;23.71;63.96
33496;BME280;19836;55.812;37.560;2023-08-06T01:20:15;99871.28;;;23.66;64.08
33496;BME280;19836;55.812;37.560;2023-08-06T01:22:42;99871.66;;;23.61;64.36
33496;BME280;19836;55.812;37.560;2023-08-06T01:25:08;99867.44;;;23.57;64.68
33496;BME280;19836;55.812;37.560;2023-08-06T01:28:04;99874.91;;;23.55;65.09
33496;BME280;19836;55.812;37.560;2023-08-06T01:31:43;99873.41;;;23.51;64.72
33496;BME280;19836;55.812;37.560;2023-08-06T03:07:13;99901.75;;;23.72;66.62
33496;BME280;19836;55.812;37.560;2023-08-06T03:09:59;99902.50;;;23.74;66.73
33496;BME280;19836;55.812;37.560;2023-08-06T03:12:28;99902.25;;;23.77;66.79
33496;BME280;19836;55.812;37.560;2023-08-06T03:14:54;99892.19;;;23.78;66.69
33496;BME280;19836;55.812;37.560;2023-08-06T03:17:20;99900.03;;;23.82;67.12
33496;BME280;19836;55.812;37.560;2023-08-06T03:19:47;99904.13;;;23.88;67.07
33496;BME280;19836;55.812;37.560;2023-08-06T03:22:14;99900.03;;;23.93;66.93
33496;BME280;19836;55.812;37.560;2023-08-06T03:24:40;99900.53;;;23.98;66.76
33496;BME280;19836;55.812;37.560;2023-08-06T03:27:07;99897.16;;;24.06;66.61
33496;BME280;19836;55.812;37.560;2023-08-06T03:29:36;99897.66;;;24.11;66.36
33496;BME280;19836;55.812;37.560;2023-08-06T03:32:03;99900.03;;;24.15;66.57
33496;BME280;19836;55.812;37.560;2023-08-06T03:34:29;99901.38;;;24.21;66.18
33496;BME280;19836;55.812;37.560;2023-08-06T03:36:55;99897.88;;;24.30;66.43
33496;BME280;19836;55.812;37.560;2023-08-06T03:39:20;99907.69;;;24.32;66.17
33496;BME280;19836;55.812;37.560;2023-08-06T03:41:46;99899.97;;;24.37;66.05
33496;BME280;19836;55.812;37.560;2023-08-06T03:44:12;99905.91;;;24.42;65.84
33496;BME280;19836;55.812;37.560;2023-08-06T03:46:38;99902.66;;;24.48;65.44
33496;BME280;19836;55.812;37.560;2023-08-06T03:49:06;99908.38;;;24.56;65.47
33496;BME280;19836;55.812;37.560;2023-08-06T03:51:32;99906.03;;;24.63;64.95
33496;BME280;19836;55.812;37.560;2023-08-06T03:53:59;99898.13;;;24.69;64.69
33496;BME280;19836;55.812;37.560;2023-08-06T03:56:25;99904.56;;;24.79;63.84
33496;BME280;19836;55.812;37.560;2023-08-06T03:58:51;99903.78;;;24.88;63.71
33496;BME280;19836;55.812;37.560;2023-08-06T04:01:17;99904.00;;;24.96;63.22
33496;BME280;19836;55.812;37.560;2023-08-06T04:03:45;99890.47;;;25.04;62.81
33496;BME280;19836;55.812;37.560;2023-08-06T04:06:11;99895.28;;;25.12;62.39
33496;BME280;19836;55.812;37.560;2023-08-06T04:08:37;99892.91;;;25.18;62.04
33496;BME280;19836;55.812;37.560;2023-08-06T04:11:03;99895.97;;;25.25;61.84
33496;BME280;19836;55.812;37.560;2023-08-06T04:13:30;99894.31;;;25.33;61.51
33496;BME280;19836;55.812;37.560;2023-08-06T04:16:02;99886.44;;;25.40;61.29
33496;BME280;19836;55.812;37.560;2023-08-06T04:18:29;99891.50;;;25.44;61.06
33496;BME280;19836;55.812;37.560;2023-08-06T04:20:55;99889.84;;;25.53;60.44
33496;BME280;19836;55.812;37.560;2023-08-06T04:23:23;99883.94;;;25.57;60.35
33496;BME280;19836;55.812;37.560;2023-08-06T04:25:56;99886.84;;;25.65;59.83
33496;BME280;19836;55.812;37.560;2023-08-06T04:28:24;99891.94;;;25.70;59.90
33496;BME280;19836;55.812;37.560;2023-08-06T04:30:50;99890.78;;;25.72;59.94
33496;BME280;19836;55.812;37.560;2023-08-06T04:33:17;99897.59;;;25.78;60.07
33496;BME280;19836;55.812;37.560;2023-08-06T04:35:45;99891.56;;;25.84;59.96
33496;BME280;19836;55.812;37.560;2023-08-06T04:38:11;99898.38;;;25.89;59.89
33496;BME280;19836;55.812;37.560;2023-08-06T04:40:37;99892.34;;;25.95;60.03
33496;BME280;19836;55.812;37.560;2023-08-06T04:43:03;99893.81;;;25.99;59.99
33496;BME280;19836;55.812;37.560;2023-08-06T04:45:32;99895.41;;;26.02;59.93
33496;BME280;19836;55.812;37.560;2023-08-06T04:47:58;99893.88;;;26.09;59.62
33496;BME280;19836;55.812;37.560;2023-08-06T04:50:23;99892.41;;;26.14;59.71
33496;BME280;19836;55.812;37.560;2023-08-06T04:52:49;99891.56;;;26.23;58.99
33496;BME280;19836;55.812;37.560;2023-08-06T04:55:15;99900.00;;;26.31;58.31
33496;BME280;19836;55.812;37.560;2023-08-06T04:57:41;99899.13;;;26.40;58.16
33496;BME280;19836;55.812;37.560;2023-08-06T05:00:07;99893.09;;;26.46;58.32
33496;BME280;19836;55.812;37.560;2023-08-06T05:02:33;99893.22;;;26.54;57.88
33496;BME280;19836;55.812;37.560;2023-08-06T05:05:00;99889.91;;;26.60;58.05
33496;BME280;19836;55.812;37.560;2023-08-06T05:07:26;99892.25;;;26.65;57.98
33496;BME280;19836;55.812;37.560;2023-08-06T05:09:52;99897.44;;;26.68;57.91
33496;BME280;19836;55.812;37.560;2023-08-06T05:12:17;99894.28;;;26.72;58.00
33496;BME280;19836;55.812;37.560;2023-08-06T05:14:43;99889.94;;;26.79;57.76
33496;BME280;19836;55.812;37.560;2023-08-06T05:17:09;99882.88;;;26.86;57.15
33496;BME280;19836;55.812;37.560;2023-08-06T05:19:35;99879.22;;;26.95;56.43
33496;BME280;19836;55.812;37.560;2023-08-06T05:22:01;99880.06;;;27.05;56.28
33496;BME280;19836;55.812;37.560;2023-08-06T05:24:27;99884.13;;;27.11;56.30
33496;BME280;19836;55.812;37.560;2023-08-06T05:26:53;99886.28;;;27.17;55.91
33496;BME280;19836;55.812;37.560;2023-08-06T05:29:19;99882.97;;;27.23;55.34
33496;BME280;19836;55.812;37.560;2023-08-06T05:31:45;99875.88;;;27.30;55.43
33496;BME280;19836;55.812;37.560;2023-08-06T05:34:11;99869.94;;;27.34;55.58
33496;BME280;19836;55.812;37.560;2023-08-06T05:36:37;99873.84;;;27.41;55.47
33496;BME280;19836;55.812;37.560;2023-08-06T05:39:03;99872.22;;;27.48;55.30
33496;BME280;19836;55.812;37.560;2023-08-06T05:41:29;99875.09;;;27.56;55.07
33496;BME280;19836;55.812;37.560;2023-08-06T05:43:55;99876.22;;;27.63;54.86
33496;BME280;19836;55.812;37.560;2023-08-06T05:46:21;99873.00;;;27.68;54.25
33496;BME280;19836;55.812;37.560;2023-08-06T05:48:47;99871.25;;;27.76;53.60
33496;BME280;19836;55.812;37.560;2023-08-06T05:51:12;99866.91;;;27.83;53.64
33496;BME280;19836;55.812;37.560;2023-08-06T05:53:39;99870.94;;;27.89;53.63
33496;BME280;19836;55.812;37.560;2023-08-06T05:56:04;99867.72;;;27.93;53.08
33496;BME280;19836;55.812;37.560;2023-08-06T05:58:30;99868.84;;;28.00;52.54
33496;BME280;19836;55.812;37.560;2023-08-06T06:00:56;99866.34;;;28.07;52.31
33496;BME280;19836;55.812;37.560;2023-08-06T06:03:22;99863.84;;;28.13;52.21
33496;BME280;19836;55.812;37.560;2023-08-06T06:05:48;99872.91;;;28.23;51.38
33496;BME280;19836;55.812;37.560;2023-08-06T06:08:14;99874.91;;;28.31;51.06
33496;BME280;19836;55.812;37.560;2023-08-06T06:10:40;99866.00;;;28.37;50.75
33496;BME280;19836;55.812;37.560;2023-08-06T06:13:06;99870.09;;;28.42;50.59
33496;BME280;19836;55.812;37.560;2023-08-06T06:15:32;99866.53;;;28.50;50.14
33496;BME280;19836;55.812;37.560;2023-08-06T06:17:58;99868.53;;;28.57;50.09
33496;BME280;19836;55.812;37.560;2023-08-06T06:20:24;99863.22;;;28.64;50.19
33496;BME280;19836;55.812;37.560;2023-08-06T06:22:50;99867.78;;;28.73;49.85
33496;BME280;19836;55.812;37.560;2023-08-06T06:25:16;99868.91;;;28.80;49.31
33496;BME280;19836;55.812;37.560;2023-08-06T06:27:42;99859.28;;;28.84;49.40
33496;BME280;19836;55.812;37.560;2023-08-06T06:30:08;99867.09;;;28.88;49.60
33496;BME280;19836;55.812;37.560;2023-08-06T06:32:34;99863.84;;;28.93;49.03
33496;BME280;19836;55.812;37.560;2023-08-06T06:35:00;99864.13;;;28.99;48.91
33496;BME280;19836;55.812;37.560;2023-08-06T06:37:26;99862.06;;;29.01;48.52
33496;BME280;19836;55.812;37.560;2023-08-06T06:39:52;99866.38;;;29.04;48.29
33496;BME280;19836;55.812;37.560;2023-08-06T06:42:18;99864.91;;;29.09;48.12
33496;BME280;19836;55.812;37.560;2023-08-06T06:44:49;99861.72;;;29.22;47.36
33496;BME280;19836;55.812;37.560;2023-08-06T06:47:15;99859.56;;;29.33;47.43
33496;BME280;19836;55.812;37.560;2023-08-06T06:49:43;99857.72;;;29.42;46.96
33496;BME280;19836;55.812;37.560;2023-08-06T06:52:08;99856.53;;;29.44;46.87
33496;BME280;19836;55.812;37.560;2023-08-06T06:54:34;99850.69;;;29.47;46.68
33496;BME280;19836;55.812;37.560;2023-08-06T06:57:00;99842.06;;;29.50;46.51
33496;BME280;19836;55.812;37.560;2023-08-06T06:59:26;99852.81;;;29.53;45.98
33496;BME280;19836;55.812;37.560;2023-08-06T07:01:52;99850.44;;;29.58;46.08
33496;BME280;19836;55.812;37.560;2023-08-06T07:04:21;99849.47;;;29.67;45.76
33496;BME280;19836;55.812;37.560;2023-08-06T07:06:47;99855.38;;;29.72;45.62
33496;BME280;19836;55.812;37.560;2023-08-06T07:09:13;99846.88;;;29.74;45.27
33496;BME280;19836;55.812;37.560;2023-08-06T07:11:38;99837.25;;;29.78;44.98
33496;BME280;19836;55.812;37.560;2023-08-06T07:14:04;99849.56;;;29.83;44.95
33496;BME280;19836;55.812;37.560;2023-08-06T07:16:30;99846.28;;;29.88;44.97
33496;BME280;19836;55.812;37.560;2023-08-06T07:18:56;99837.50;;;29.92;44.63
33496;BME280;19836;55.812;37.560;2023-08-06T07:21:22;99837.88;;;29.97;44.49
33496;BME280;19836;55.812;37.560;2023-08-06T07:23:48;99848.41;;;30.02;44.50
33496;BME280;19836;55.812;37.560;2023-08-06T07:26:16;99841.38;;;30.07;44.49
33496;BME280;19836;55.812;37.560;2023-08-06T07:28:42;99837.59;;;30.16;44.25
33496;BME280;19836;55.812;37.560;2023-08-06T07:31:08;99841.47;;;30.23;44.08
33496;BME280;19836;55.812;37.560;2023-08-06T07:33:35;99839.06;;;30.28;44.24
33496;BME280;19836;55.812;37.560;2023-08-06T07:36:16;99836.28;;;30.36;44.22
33496;BME280;19836;55.812;37.560;2023-08-06T07:38:42;99830.09;;;30.42;43.87
33496;BME280;19836;55.812;37.560;2023-08-06T07:41:08;99828.53;;;30.48;44.14
33496;BME280;19836;55.812;37.560;2023-08-06T07:43:34;99839.44;;;30.49;43.92
33496;BME280;19836;55.812;37.560;2023-08-06T07:46:01;99833.22;;;30.55;44.23
33496;BME280;19836;55.812;37.560;2023-08-06T07:48:27;99834.28;;;30.62;43.89
33496;BME280;19836;55.812;37.560;2023-08-06T07:50:57;99829.59;;;30.63;43.51
33496;BME280;19836;55.812;37.560;2023-08-06T07:53:24;99833.09;;;30.65;44.23
33496;BME280;19836;55.812;37.560;2023-08-06T07:55:53;99838.47;;;30.66;44.13
33496;BME280;19836;55.812;37.560;2023-08-06T07:58:20;99825.84;;;30.72;43.97
33496;BME280;19836;55.812;37.560;2023-08-06T08:00:46;99826.38;;;30.75;43.49
33496;BME280;19836;55.812;37.560;2023-08-06T08:03:13;99840.56;;;30.80;43.20
33496;BME280;19836;55.812;37.560;2023-08-06T08:05:40;99827.75;;;30.87;43.48
33496;BME280;19836;55.812;37.560;2023-08-06T08:08:07;99835.03;;;30.88;43.38
33496;BME280;19836;55.812;37.560;2023-08-06T08:10:33;99823.59;;;30.91;43.71
33496;BME280;19836;55.812;37.560;2023-08-06T08:13:03;99820.66;;;30.93;43.38
33496;BME280;19836;55.812;37.560;2023-08-06T08:15:31;99812.88;;;30.96;43.52
33496;BME280;19836;55.812;37.560;2023-08-06T08:17:56;99816.88;;;31.02;43.08
33496;BME280;19836;55.812;37.560;2023-08-06T08:20:23;99808.56;;;31.02;42.89
33496;BME280;19836;55.812;37.560;2023-08-06T08:22:49;99817.91;;;31.01;43.06
33496;BME280;19836;55.812;37.560;2023-08-06T08:25:15;99808.38;;;31.03;43.18
33496;BME280;19836;55.812;37.560;2023-08-06T08:27:41;99803.88;;;31.10;43.06
33496;BME280;19836;55.812;37.560;2023-08-06T08:30:08;99816.84;;;31.18;42.89
33496;BME280;19836;55.812;37.560;2023-08-06T08:32:33;99808.91;;;31.23;42.78
33496;BME280;19836;55.812;37.560;2023-08-06T08:34:59;99815.28;;;31.32;42.99
33496;BME280;19836;55.812;37.560;2023-08-06T08:37:25;99806.28;;;31.38;42.72
33496;BME280;19836;55.812;37.560;2023-08-06T08:39:51;99805.44;;;31.37;42.17
33496;BME280;19836;55.812;37.560;2023-08-06T08:42:18;99795.53;;;31.42;42.30
33496;BME280;19836;55.812;37.560;2023-08-06T08:44:45;99790.84;;;31.51;42.60
33496;BME280;19836;55.812;37.560;2023-08-06T08:47:11;99801.41;;;31.56;42.24
33496;BME280;19836;55.812;37.560;2023-08-06T08:49:37;99805.38;;;31.61;42.10
33496;BME280;19836;55.812;37.560;2023-08-06T08:52:04;99807.59;;;31.58;41.81
33496;BME280;19836;55.812;37.560;2023-08-06T08:54:37;99798.28;;;31.51;41.79
33496;BME280;19836;55.812;37.560;2023-08-06T08:57:04;99797.25;;;31.52;42.24
33496;BME280;19836;55.812;37.560;2023-08-06T08:59:31;99801.41;;;31.56;42.54
33496;BME280;19836;55.812;37.560;2023-08-06T09:01:58;99797.72;;;31.63;42.75
33496;BME280;19836;55.812;37.560;2023-08-06T09:04:26;99798.78;;;31.62;42.36
33496;BME280;19836;55.812;37.560;2023-08-06T09:06:54;99804.81;;;31.66;42.72
33496;BME280;19836;55.812;37.560;2023-08-06T09:09:26;99792.72;;;31.75;42.87
33496;BME280;19836;55.812;37.560;2023-08-06T09:11:55;99787.44;;;31.88;42.96
33496;BME280;19836;55.812;37.560;2023-08-06T09:14:26;99800.41;;;31.95;43.01
33496;BME280;19836;55.812;37.560;2023-08-06T09:16:52;99787.75;;;32.01;43.02
33496;BME280;19836;55.812;37.560;2023-08-06T09:19:18;99787.38;;;32.04;42.76
33496;BME280;19836;55.812;37.560;2023-08-06T09:21:45;99795.44;;;32.21;42.42
33496;BME280;19836;55.812;37.560;2023-08-06T09:24:15;99788.59;;;33.30;41.56
33496;BME280;19836;55.812;37.560;2023-08-06T09:26:44;99796.69;;;35.25;38.90
33496;BME280;19836;55.812;37.560;2023-08-06T09:29:11;99790.06;;;37.01;36.14
33496;BME280;19836;55.812;37.560;2023-08-06T09:31:45;99782.34;;;38.38;33.66
33496;BME280;19836;55.812;37.560;2023-08-06T09:34:15;99794.97;;;39.53;32.14
33496;BME280;19836;55.812;37.560;2023-08-06T09:36:49;99787.84;;;40.11;31.41
33496;BME280;19836;55.812;37.560;2023-08-06T09:39:20;99785.59;;;40.85;30.44
33496;BME280;19836;55.812;37.560;2023-08-06T09:41:47;99776.97;;;41.39;28.95
33496;BME280;19836;55.812;37.560;2023-08-06T09:44:18;99775.59;;;42.22;27.99
33496;BME280;19836;55.812;37.560;2023-08-06T09:46:52;99780.50;;;42.94;26.98
33496;BME280;19836;55.812;37.560;2023-08-06T09:49:21;99768.31;;;42.77;26.15
33496;BME280;19836;55.812;37.560;2023-08-06T09:51:47;99770.56;;;43.19;26.06
33496;BME280;19836;55.812;37.560;2023-08-06T09:54:17;99756.91;;;43.78;25.63
33496;BME280;19836;55.812;37.560;2023-08-06T09:56:43;99762.66;;;44.26;24.98
33496;BME280;19836;55.812;37.560;2023-08-06T09:59:09;99760.59;;;44.59;24.22
33496;BME280;19836;55.812;37.560;2023-08-06T10:01:37;99761.06;;;44.99;23.73
33496;BME280;19836;55.812;37.560;2023-08-06T10:04:05;99756.91;;;45.38;23.30
33496;BME280;19836;55.812;37.560;2023-08-06T10:06:35;99756.41;;;45.46;23.29
33496;BME280;19836;55.812;37.560;2023-08-06T10:09:04;99749.50;;;45.32;22.47
33496;BME280;19836;55.812;37.560;2023-08-06T10:11:30;99744.38;;;45.29;23.00
33496;BME280;19836;55.812;37.560;2023-08-06T10:14:13;99741.69;;;45.44;22.55
33496;BME280;19836;55.812;37.560;2023-08-06T10:16:41;99736.34;;;45.53;22.54
33496;BME280;19836;55.812;37.560;2023-08-06T10:19:09;99724.66;;;45.81;22.07
33496;BME280;19836;55.812;37.560;2023-08-06T10:21:35;99729.78;;;45.84;22.37
33496;BME280;19836;55.812;37.560;2023-08-06T10:24:01;99722.34;;;46.29;22.20
33496;BME280;19836;55.812;37.560;2023-08-06T10:26:29;99724.16;;;46.45;21.71
33496;BME280;19836;55.812;37.560;2023-08-06T10:28:56;99724.78;;;46.62;21.22
33496;BME280;19836;55.812;37.560;2023-08-06T10:31:54;99717.75;;;46.85;20.68
33496;BME280;19836;55.812;37.560;2023-08-06T10:34:21;99724.00;;;46.97;20.52
33496;BME280;19836;55.812;37.560;2023-08-06T10:36:47;99712.03;;;46.70;20.37
33496;BME280;19836;55.812;37.560;2023-08-06T10:39:16;99716.22;;;46.52;20.83
33496;BME280;19836;55.812;37.560;2023-08-06T10:41:42;99720.72;;;46.38;21.00
33496;BME280;19836;55.812;37.560;2023-08-06T10:44:10;99717.19;;;46.73;20.46
33496;BME280;19836;55.812;37.560;2023-08-06T10:46:37;99722.00;;;46.82;20.27
33496;BME280;19836;55.812;37.560;2023-08-06T10:49:04;99711.81;;;46.86;20.28
33496;BME280;19836;55.812;37.560;2023-08-06T10:51:30;99715.19;;;46.88;20.25
33496;BME280;19836;55.812;37.560;2023-08-06T10:53:56;99708.03;;;46.71;19.80
33496;BME280;19836;55.812;37.560;2023-08-06T10:56:25;99713.50;;;46.87;20.13
33496;BME280;19836;55.812;37.560;2023-08-06T10:58:54;99709.78;;;46.82;20.43
33496;BME280;19836;55.812;37.560;2023-08-06T11:01:24;99707.19;;;46.60;20.47
33496;BME280;19836;55.812;37.560;2023-08-06T11:03:50;99716.81;;;46.69;20.47
33496;BME280;19836;55.812;37.560;2023-08-06T11:06:22;99709.53;;;47.03;20.13
33496;BME280;19836;55.812;37.560;2023-08-06T11:08:51;99709.56;;;47.18;19.77
33496;BME280;19836;55.812;37.560;2023-08-06T11:11:17;99698.78;;;47.55;19.75
33496;BME280;19836;55.812;37.560;2023-08-06T11:13:45;99704.88;;;48.12;19.20
33496;BME280;19836;55.812;37.560;2023-08-06T11:16:13;99704.88;;;48.12;19.00
33496;BME280;19836;55.812;37.560;2023-08-06T11:18:40;99699.88;;;47.79;19.25
33496;BME280;19836;55.812;37.560;2023-08-06T11:21:08;99703.78;;;47.98;19.26
33496;BME280;19836;55.812;37.560;2023-08-06T11:23:35;99704.59;;;48.24;19.05
33496;BME280;19836;55.812;37.560;2023-08-06T11:26:01;99707.59;;;48.52;18.98
33496;BME280;19836;55.812;37.560;2023-08-06T11:28:27;99697.72;;;48.78;18.61
33496;BME280;19836;55.812;37.560;2023-08-06T11:30:53;99693.34;;;48.52;18.73
33496;BME280;19836;55.812;37.560;2023-08-06T11:33:22;99694.94;;;48.15;18.83
33496;BME280;19836;55.812;37.560;2023-08-06T11:35:49;99691.00;;;46.61;20.03
33496;BME280;19836;55.812;37.560;2023-08-06T11:38:15;99700.16;;;46.83;20.26
33496;BME280;19836;55.812;37.560;2023-08-06T11:40:52;99692.47;;;46.78;19.89
33496;BME280;19836;55.812;37.560;2023-08-06T11:43:20;99687.13;;;46.05;20.02
33496;BME280;19836;55.812;37.560;2023-08-06T11:45:50;99681.66;;;46.65;19.68
33496;BME280;19836;55.812;37.560;2023-08-06T11:48:20;99681.16;;;47.18;19.73
33496;BME280;19836;55.812;37.560;2023-08-06T11:50:46;99675.19;;;47.25;19.42
33496;BME280;19836;55.812;37.560;2023-08-06T11:53:13;99675.09;;;46.55;19.86
33496;BME280;19836;55.812;37.560;2023-08-06T11:55:40;99674.84;;;46.71;19.87
33496;BME280;19836;55.812;37.560;2023-08-06T11:58:07;99673.75;;;45.18;20.58
33496;BME280;19836;55.812;37.560;2023-08-06T12:00:33;99668.75;;;45.66;20.40
33496;BME280;19836;55.812;37.560;2023-08-06T12:02:59;99672.66;;;46.02;20.07
33496;BME280;19836;55.812;37.560;2023-08-06T12:05:32;99674.31;;;46.74;19.52
33496;BME280;19836;55.812;37.560;2023-08-06T12:08:03;99669.16;;;45.48;20.21
33496;BME280;19836;55.812;37.560;2023-08-06T12:10:31;99660.59;;;43.08;22.77
33496;BME280;19836;55.812;37.560;2023-08-06T12:12:58;99661.19;;;43.43;22.84
33496;BME280;19836;55.812;37.560;2023-08-06T12:15:24;99652.41;;;45.05;21.78
33496;BME280;19836;55.812;37.560;2023-08-06T12:17:50;99659.31;;;46.02;19.92
33496;BME280;19836;55.812;37.560;2023-08-06T12:20:16;99654.44;;;46.74;19.71
33496;BME280;19836;55.812;37.560;2023-08-06T12:22:42;99659.84;;;46.96;19.44
33496;BME280;19836;55.812;37.560;2023-08-06T12:25:10;99655.59;;;47.23;19.33
33496;BME280;19836;55.812;37.560;2023-08-06T12:27:39;99650.13;;;47.67;18.93
33496;BME280;19836;55.812;37.560;2023-08-06T12:30:06;99650.44;;;47.80;18.42
33496;BME280;19836;55.812;37.560;2023-08-06T12:32:35;99658.84;;;48.05;18.69
33496;BME280;19836;55.812;37.560;2023-08-06T12:35:01;99647.34;;;46.92;18.83
33496;BME280;19836;55.812;37.560;2023-08-06T12:37:33;99647.34;;;46.72;19.95
33496;BME280;19836;55.812;37.560;2023-08-06T12:39:59;99646.88;;;46.18;19.90
33496;BME280;19836;55.812;37.560;2023-08-06T12:42:24;99648.16;;;45.34;20.53
33496;BME280;19836;55.812;37.560;2023-08-06T12:44:51;99640.84;;;45.07;21.02
33496;BME280;19836;55.812;37.560;2023-08-06T12:47:17;99640.03;;;42.96;22.57
33496;BME280;19836;55.812;37.560;2023-08-06T12:49:43;99640.75;;;42.86;23.42
33496;BME280;19836;55.812;37.560;2023-08-06T12:52:09;99646.84;;;44.09;22.16
33496;BME280;19836;55.812;37.560;2023-08-06T12:54:38;99644.22;;;44.77;21.58
33496;BME280;19836;55.812;37.560;2023-08-06T12:57:04;99629.16;;;45.81;20.63
33496;BME280;19836;55.812;37.560;2023-08-06T12:59:31;99646.88;;;46.18;20.29
33496;BME280;19836;55.812;37.560;2023-08-06T13:01:57;99638.97;;;46.20;20.39
33496;BME280;19836;55.812;37.560;2023-08-06T13:04:23;99634.97;;;46.11;20.84
33496;BME280;19836;55.812;37.560;2023-08-06T13:06:49;99637.38;;;45.83;20.35
33496;BME280;19836;55.812;37.560;2023-08-06T13:09:15;99627.47;;;45.80;20.29
33496;BME280;19836;55.812;37.560;2023-08-06T13:11:41;99622.31;;;45.31;21.09
33496;BME280;19836;55.812;37.560;2023-08-06T13:14:11;99631.41;;;44.96;21.06
33496;BME280;19836;55.812;37.560;2023-08-06T13:16:39;99623.00;;;44.00;21.64
33496;BME280;19836;55.812;37.560;2023-08-06T13:19:06;99622.59;;;42.66;22.73
33496;BME280;19836;55.812;37.560;2023-08-06T13:21:58;99621.09;;;41.40;24.08
33496;BME280;19836;55.812;37.560;2023-08-06T13:24:19;99618.56;;;41.78;24.25
33496;BME280;19836;55.812;37.560;2023-08-06T13:26:45;99618.13;;;41.35;24.43
33496;BME280;19836;55.812;37.560;2023-08-06T13:29:10;99613.97;;;41.49;24.52
33496;BME280;19836;55.812;37.560;2023-08-06T13:31:37;99618.84;;;40.96;24.78
33496;BME280;19836;55.812;37.560;2023-08-06T13:34:03;99617.47;;;40.05;25.45
33496;BME280;19836;55.812;37.560;2023-08-06T13:36:29;99607.44;;;40.56;26.01
33496;BME280;19836;55.812;37.560;2023-08-06T13:38:55;99610.84;;;42.13;24.89
33496;BME280;19836;55.812;37.560;2023-08-06T13:41:21;99610.44;;;43.48;23.78
33496;BME280;19836;55.812;37.560;2023-08-06T13:43:47;99610.50;;;44.44;22.19
33496;BME280;19836;55.812;37.560;2023-08-06T13:46:18;99602.38;;;44.79;21.59
33496;BME280;19836;55.812;37.560;2023-08-06T13:48:47;99608.53;;;44.18;22.02
33496;BME280;19836;55.812;37.560;2023-08-06T13:51:17;99599.03;;;43.05;23.09
33496;BME280;19836;55.812;37.560;2023-08-06T13:53:43;99601.72;;;41.94;23.95
33496;BME280;19836;55.812;37.560;2023-08-06T13:56:09;99597.44;;;41.92;24.39
33496;BME280;19836;55.812;37.560;2023-08-06T13:58:38;99594.69;;;42.08;23.65
33496;BME280;19836;55.812;37.560;2023-08-06T14:01:04;99599.56;;;42.41;23.54
33496;BME280;19836;55.812;37.560;2023-08-06T14:03:30;99600.16;;;43.42;22.73
33496;BME280;19836;55.812;37.560;2023-08-06T14:05:56;99609.75;;;44.06;22.15
33496;BME280;19836;55.812;37.560;2023-08-06T14:08:23;99599.00;;;44.24;21.69
33496;BME280;19836;55.812;37.560;2023-08-06T14:10:51;99594.28;;;44.61;21.89
33496;BME280;19836;55.812;37.560;2023-08-06T14:13:18;99598.13;;;44.77;21.15
33496;BME280;19836;55.812;37.560;2023-08-06T14:15:44;99595.81;;;44.47;21.67
33496;BME280;19836;55.812;37.560;2023-08-06T14:18:14;99591.84;;;42.97;22.71
33496;BME280;19836;55.812;37.560;2023-08-06T14:20:41;99584.00;;;41.43;24.65
33496;BME280;19836;55.812;37.560;2023-08-06T14:23:07;99585.91;;;40.50;25.54
33496;BME280;19836;55.812;37.560;2023-08-06T14:25:33;99585.94;;;40.85;25.62
33496;BME280;19836;55.812;37.560;2023-08-06T14:27:59;99574.63;;;41.03;25.73
33496;BME280;19836;55.812;37.560;2023-08-06T14:30:25;99578.16;;;40.98;25.75